Time;durP1;ratioP1;P1;durP2;ratioP2;P2;SDS_P1;SDS_P2;PMS_P1;PMS_P2;Temp;Humidity;BMP_temperature;BMP_pressure;BME280_temperature;BME280_humidity;BME280_pressure;Samples;Min_cycle;Max_cycle;Signal;HPM_P1;HPM_P2
2021/12/29 00:00:40;;;;;;;9.43;4.32;;;9.30;99.90;;;;;;4843118;29;20405;-83
2021/12/29 00:03:06;;;;;;;7.45;4.07;;;9.30;99.90;;;;;;4859854;29;20520;-83
2021/12/29 00:05:33;;;;;;;11.05;5.30;;;9.30;99.90;;;;;;4819683;29;20485;-82
2021/12/29 00:08:00;;;;;;;9.00;4.00;;;9.30;99.90;;;;;;4854748;29;20474;-82
2021/12/29 00:10:29;;;;;;;9.05;4.30;;;9.30;99.90;;;;;;4844778;29;20053;-83
2021/12/29 00:12:56;;;;;;;8.65;5.38;;;9.30;99.90;;;;;;4859021;29;20037;-82
2021/12/29 00:15:27;;;;;;;7.90;4.47;;;9.30;99.90;;;;;;4876187;29;20036;-83
2021/12/29 00:17:56;;;;;;;8.00;3.93;;;9.30;99.90;;;;;;4871195;29;20066;-83
2021/12/29 00:20:28;;;;;;;7.35;4.47;;;9.30;99.90;;;;;;4875866;29;20476;-82
2021/12/29 00:23:00;;;;;;;9.02;5.07;;;9.30;99.90;;;;;;4871664;29;20033;-82
2021/12/29 00:25:26;;;;;;;11.13;5.60;;;9.30;99.90;;;;;;4845993;29;20038;-83
2021/12/29 00:27:58;;;;;;;8.18;5.82;;;9.30;99.90;;;;;;4861598;29;20037;-83
2021/12/29 00:30:24;;;;;;;8.82;5.65;;;9.30;99.90;;;;;;4863396;29;20041;-83
2021/12/29 00:32:58;;;;;;;8.55;5.43;;;9.30;99.90;;;;;;4859874;29;20049;-83
2021/12/29 00:35:46;;;;;;;10.27;6.00;;;9.20;99.90;;;;;;4852334;29;20040;-83
2021/12/29 00:38:31;;;;;;;13.05;6.57;;;9.30;99.90;;;;;;4871847;29;20044;-83
2021/12/29 00:41:17;;;;;;;10.27;6.75;;;9.20;99.90;;;;;;4861364;29;20044;-83
2021/12/29 00:44:03;;;;;;;9.80;5.43;;;9.30;99.90;;;;;;4857715;29;20482;-84
2021/12/29 00:46:29;;;;;;;7.03;5.50;;;9.30;99.90;;;;;;4848923;29;20060;-83
2021/12/29 00:48:56;;;;;;;8.00;4.82;;;9.30;99.90;;;;;;4858584;29;20044;-83
2021/12/29 00:51:23;;;;;;;7.07;4.22;;;9.30;99.90;;;;;;4855182;29;20056;-83
2021/12/29 00:53:49;;;;;;;7.97;4.25;;;9.30;99.90;;;;;;4877543;29;20033;-83
2021/12/29 00:56:16;;;;;;;7.68;4.72;;;9.20;99.90;;;;;;4827465;29;20035;-82
2021/12/29 00:58:44;;;;;;;12.43;5.13;;;9.30;99.90;;;;;;4859664;29;20060;-84
2021/12/29 01:01:11;;;;;;;6.57;4.53;;;9.30;99.90;;;;;;4829556;29;20057;-84
2021/12/29 01:03:38;;;;;;;9.40;4.72;;;9.30;99.90;;;;;;4835282;29;20037;-83
2021/12/29 01:06:05;;;;;;;13.40;7.07;;;9.30;99.90;;;;;;4837221;29;20046;-76
2021/12/29 01:08:32;;;;;;;11.93;6.57;;;9.30;99.90;;;;;;4856273;29;20370;-78
2021/12/29 01:10:59;;;;;;;12.90;6.65;;;9.20;99.90;;;;;;4840056;29;20037;-77
2021/12/29 01:13:34;;;;;;;11.02;6.65;;;9.30;99.90;;;;;;4824148;29;20040;-77
2021/12/29 01:18:34;;;;;;;;;;;9.30;99.90;;;;;;4856957;29;20036;-77
2021/12/29 01:21:01;;;;;;;19.63;8.50;;;9.30;99.90;;;;;;4812636;29;20438;-77
2021/12/29 01:23:27;;;;;;;14.65;6.95;;;9.30;99.90;;;;;;4837202;29;21136;-77
2021/12/29 01:25:54;;;;;;;13.45;6.88;;;9.30;99.90;;;;;;4847365;29;20409;-77
2021/12/29 01:28:20;;;;;;;18.40;7.88;;;9.30;99.90;;;;;;4826204;29;20033;-77
2021/12/29 01:30:47;;;;;;;17.92;8.38;;;9.30;99.90;;;;;;4821847;29;20398;-77
2021/12/29 01:33:14;;;;;;;18.75;9.88;;;9.20;99.90;;;;;;4806589;29;23560;-77
2021/12/29 01:35:41;;;;;;;21.08;9.55;;;9.20;99.90;;;;;;4814988;29;20062;-77
2021/12/29 01:38:08;;;;;;;21.48;11.82;;;9.30;99.90;;;;;;4836243;29;20028;-77
2021/12/29 01:40:37;;;;;;;26.77;13.77;;;9.30;99.90;;;;;;4837736;29;20048;-77
2021/12/29 01:43:05;;;;;;;23.98;12.55;;;9.30;99.90;;;;;;4837105;29;20029;-77
2021/12/29 01:45:31;;;;;;;19.85;9.90;;;9.30;99.90;;;;;;4846071;29;20028;-76
2021/12/29 01:48:00;;;;;;;22.77;11.48;;;9.30;99.90;;;;;;4835577;29;20036;-76
2021/12/29 01:50:29;;;;;;;19.23;9.40;;;9.20;99.90;;;;;;4837563;29;20458;-77
2021/12/29 01:53:01;;;;;;;20.58;10.32;;;9.30;99.90;;;;;;4855729;29;20711;-75
2021/12/29 01:55:31;;;;;;;25.65;12.02;;;9.30;99.90;;;;;;4840478;29;20066;-81
2021/12/29 01:57:58;;;;;;;24.63;12.82;;;9.30;99.90;;;;;;4833341;29;20701;-81
2021/12/29 02:00:28;;;;;;;20.63;10.10;;;9.30;99.90;;;;;;4836049;29;20045;-76
2021/12/29 02:02:55;;;;;;;19.23;9.25;;;9.30;99.90;;;;;;4829559;29;20041;-76
2021/12/29 02:05:22;;;;;;;20.63;9.90;;;9.30;99.90;;;;;;4812103;29;20029;-77
2021/12/29 02:07:48;;;;;;;25.90;10.30;;;9.30;99.90;;;;;;4851638;29;20030;-77
2021/12/29 02:10:17;;;;;;;14.45;8.75;;;9.30;99.90;;;;;;4837434;29;20505;-76
2021/12/29 02:12:44;;;;;;;20.45;10.23;;;9.30;99.90;;;;;;4839185;29;20486;-77
2021/12/29 02:15:12;;;;;;;25.50;10.35;;;9.30;99.90;;;;;;4839305;29;20044;-76
2021/12/29 02:17:38;;;;;;;20.10;9.75;;;9.30;99.90;;;;;;4856452;29;20608;-77
2021/12/29 02:20:14;;;;;;;18.40;9.65;;;9.30;99.90;;;;;;4837990;29;20080;-82
2021/12/29 02:22:48;;;;;;;16.52;7.95;;;9.30;99.90;;;;;;4835424;29;20036;-81
2021/12/29 02:27:45;;;;;;;20.08;10.45;;;9.30;99.90;;;;;;4822497;29;20029;-82
2021/12/29 02:30:13;;;;;;;25.05;11.15;;;9.30;99.90;;;;;;4851926;29;20033;-83
2021/12/29 02:32:40;;;;;;;17.17;9.77;;;9.30;99.90;;;;;;4836567;29;20056;-76
2021/12/29 02:35:07;;;;;;;19.63;8.85;;;9.20;99.90;;;;;;4856560;29;20029;-76
2021/12/29 02:37:33;;;;;;;22.60;9.98;;;9.30;99.90;;;;;;4825783;29;20053;-76
2021/12/29 02:40:00;;;;;;;19.77;9.88;;;9.30;99.90;;;;;;4834721;29;20041;-76
2021/12/29 02:42:30;;;;;;;17.90;8.73;;;9.20;99.90;;;;;;4853950;29;20025;-77
2021/12/29 02:45:01;;;;;;;22.02;10.98;;;9.30;99.90;;;;;;4840630;29;20050;-77
2021/12/29 02:47:28;;;;;;;21.80;9.93;;;9.20;99.90;;;;;;4829465;29;20036;-77
2021/12/29 02:49:54;;;;;;;27.83;12.70;;;9.30;99.90;;;;;;4820029;29;20033;-77
2021/12/29 02:52:20;;;;;;;23.80;11.15;;;9.30;99.90;;;;;;4822459;29;20029;-77
2021/12/29 02:54:47;;;;;;;22.25;10.43;;;9.20;99.90;;;;;;4839213;29;20038;-77
2021/12/29 02:57:13;;;;;;;20.35;9.35;;;9.30;99.90;;;;;;4837645;29;20037;-77
2021/12/29 02:59:40;;;;;;;17.95;9.50;;;9.20;99.90;;;;;;4836916;29;20040;-77
2021/12/29 03:02:06;;;;;;;17.50;9.50;;;9.20;99.90;;;;;;4843704;29;20053;-78
2021/12/29 03:04:33;;;;;;;21.75;9.40;;;9.20;99.90;;;;;;4805595;29;20026;-77
2021/12/29 03:06:59;;;;;;;15.98;8.48;;;9.20;99.90;;;;;;4838034;29;20048;-76
2021/12/29 03:09:26;;;;;;;17.20;8.93;;;9.20;99.90;;;;;;4843328;29;20040;-76
2021/12/29 03:11:52;;;;;;;16.63;8.27;;;9.30;99.90;;;;;;4854030;29;20041;-76
2021/12/29 03:14:20;;;;;;;20.10;9.40;;;9.20;99.90;;;;;;4830580;29;20029;-77
2021/12/29 03:16:47;;;;;;;17.27;9.38;;;9.20;99.90;;;;;;4855525;29;20056;-76
2021/12/29 03:19:14;;;;;;;18.75;9.18;;;9.20;99.90;;;;;;4856514;29;20033;-77
2021/12/29 03:21:41;;;;;;;17.25;8.10;;;9.20;99.90;;;;;;4841399;29;20382;-77
2021/12/29 03:24:08;;;;;;;17.33;7.75;;;9.20;99.90;;;;;;4834190;29;20033;-77
2021/12/29 03:26:35;;;;;;;20.00;9.02;;;9.20;99.90;;;;;;4841789;29;20368;-77
2021/12/29 03:29:03;;;;;;;17.15;8.90;;;9.20;99.90;;;;;;4826627;29;20025;-76
2021/12/29 03:31:32;;;;;;;25.80;10.88;;;9.20;99.90;;;;;;4836721;29;20103;-76
2021/12/29 03:33:59;;;;;;;25.35;10.40;;;9.20;99.90;;;;;;4833112;29;20042;-76
2021/12/29 03:36:29;;;;;;;19.13;9.25;;;9.20;99.90;;;;;;4824963;29;20026;-76
2021/12/29 03:38:56;;;;;;;23.52;10.00;;;9.20;99.90;;;;;;4836639;29;20041;-76
2021/12/29 03:41:24;;;;;;;20.00;9.10;;;9.20;99.90;;;;;;4824290;29;20406;-78
2021/12/29 03:43:51;;;;;;;21.52;9.20;;;9.20;99.90;;;;;;4829661;29;20862;-77
2021/12/29 03:46:19;;;;;;;26.42;9.88;;;9.20;99.90;;;;;;4851284;29;20021;-77
2021/12/29 03:48:47;;;;;;;18.98;9.65;;;9.20;99.90;;;;;;4855222;29;20033;-77
2021/12/29 03:51:14;;;;;;;22.10;10.07;;;9.20;99.90;;;;;;4842555;29;20037;-78
2021/12/29 03:53:40;;;;;;;19.42;8.77;;;9.20;99.90;;;;;;4823773;29;20053;-77
2021/12/29 03:56:07;;;;;;;17.17;7.55;;;9.20;99.90;;;;;;4824852;29;20822;-77
2021/12/29 03:58:35;;;;;;;21.67;8.75;;;9.20;99.90;;;;;;4840138;29;20045;-77
2021/12/29 04:01:09;;;;;;;16.00;8.65;;;9.20;99.90;;;;;;4818387;29;20034;-76
2021/12/29 04:03:36;;;;;;;19.50;7.38;;;9.20;99.90;;;;;;4857373;29;20033;-82
2021/12/29 04:06:02;;;;;;;20.13;7.07;;;9.20;99.90;;;;;;4875209;29;20048;-82
2021/12/29 04:08:29;;;;;;;22.10;7.50;;;9.30;99.90;;;;;;4844339;29;20037;-82
2021/12/29 04:10:56;;;;;;;12.65;5.68;;;9.30;99.90;;;;;;4874882;29;20036;-83
2021/12/29 04:13:22;;;;;;;14.40;5.40;;;9.20;99.90;;;;;;4842224;29;20036;-83
2021/12/29 04:15:49;;;;;;;13.63;5.68;;;9.30;99.90;;;;;;4873321;29;20040;-77
2021/12/29 04:18:25;;;;;;;17.65;6.20;;;9.30;99.90;;;;;;4855685;29;20040;-77
2021/12/29 04:21:01;;;;;;;20.17;5.68;;;9.30;99.90;;;;;;4851651;29;20048;-77
2021/12/29 04:23:33;;;;;;;14.25;5.43;;;9.30;99.90;;;;;;4843006;29;20056;-82
2021/12/29 04:26:02;;;;;;;13.82;4.80;;;9.20;99.90;;;;;;4873991;29;20477;-82
2021/12/29 04:28:29;;;;;;;13.23;5.35;;;9.30;99.90;;;;;;4864200;29;20481;-82
2021/12/29 04:30:58;;;;;;;16.08;6.22;;;9.20;99.90;;;;;;4845339;29;20401;-83
2021/12/29 04:33:27;;;;;;;22.30;6.40;;;9.30;99.90;;;;;;4858921;29;20049;-83
2021/12/29 04:35:53;;;;;;;19.20;7.72;;;9.20;99.90;;;;;;4860461;29;20045;-83
2021/12/29 04:38:21;;;;;;;18.63;5.90;;;9.20;99.90;;;;;;4840819;29;20036;-84
2021/12/29 04:40:50;;;;;;;18.92;5.50;;;9.20;99.90;;;;;;4828339;29;20049;-83
2021/12/29 04:43:18;;;;;;;20.50;7.55;;;9.20;99.90;;;;;;4855362;29;20032;-78
2021/12/29 04:45:45;;;;;;;15.65;6.10;;;9.20;99.90;;;;;;4869836;29;20029;-77
2021/12/29 04:48:14;;;;;;;14.85;5.35;;;9.20;99.90;;;;;;4867583;29;20051;-82
2021/12/29 04:50:49;;;;;;;13.63;5.45;;;9.20;99.90;;;;;;4878432;29;20045;-83
2021/12/29 04:53:16;;;;;;;19.08;6.88;;;9.20;99.90;;;;;;4868944;29;20033;-83
2021/12/29 04:55:47;;;;;;;10.27;4.93;;;9.20;99.90;;;;;;4842855;29;20041;-83
2021/12/29 04:58:14;;;;;;;15.48;5.95;;;9.20;99.90;;;;;;4845860;29;20037;-83
2021/12/29 05:00:40;;;;;;;18.10;5.88;;;9.20;99.90;;;;;;4870868;29;20040;-83
2021/12/29 05:03:07;;;;;;;11.93;5.15;;;9.20;99.90;;;;;;4838455;29;20057;-83
2021/12/29 05:10:46;;;;;;;17.75;6.57;;;9.20;99.90;;;;;;4855633;29;20037;-82
2021/12/29 05:13:13;;;;;;;9.88;4.72;;;9.20;99.90;;;;;;4836280;29;20041;-83
2021/12/29 05:15:40;;;;;;;19.73;6.93;;;9.20;99.90;;;;;;4827364;29;20041;-83
2021/12/29 05:18:07;;;;;;;15.30;6.55;;;9.20;99.90;;;;;;4842467;29;20041;-82
2021/12/29 05:20:33;;;;;;;15.18;6.63;;;9.20;99.90;;;;;;4826446;29;20045;-83
2021/12/29 05:23:00;;;;;;;12.30;6.30;;;9.20;99.90;;;;;;4826128;29;20044;-83
2021/12/29 05:25:28;;;;;;;18.27;6.72;;;9.20;99.90;;;;;;4842686;29;20033;-83
2021/12/29 05:27:55;;;;;;;15.13;6.10;;;9.20;99.90;;;;;;4824785;29;20030;-83
2021/12/29 05:30:22;;;;;;;11.82;5.43;;;9.20;99.90;;;;;;4854863;29;20037;-83
2021/12/29 05:32:49;;;;;;;14.40;5.72;;;9.20;99.90;;;;;;4841150;29;20056;-83
2021/12/29 05:35:16;;;;;;;16.92;6.10;;;9.30;99.90;;;;;;4840397;29;20033;-83
2021/12/29 05:37:43;;;;;;;16.33;6.97;;;9.20;99.90;;;;;;4822962;29;20041;-83
2021/12/29 05:40:11;;;;;;;11.50;6.82;;;9.30;99.90;;;;;;4842970;29;20037;-83
2021/12/29 05:42:37;;;;;;;20.85;8.18;;;9.20;99.90;;;;;;4836264;29;20045;-84
2021/12/29 05:45:10;;;;;;;12.82;6.72;;;9.20;99.90;;;;;;4809792;29;20033;-83
2021/12/29 05:47:37;;;;;;;16.17;7.22;;;9.20;99.90;;;;;;4850027;29;20037;-83
2021/12/29 05:50:07;;;;;;;13.00;7.32;;;9.20;99.90;;;;;;4853850;29;20033;-83
2021/12/29 05:52:34;;;;;;;21.88;7.18;;;9.20;99.90;;;;;;4836774;29;20052;-83
2021/12/29 05:55:01;;;;;;;16.30;8.00;;;9.20;99.90;;;;;;4821231;29;20386;-78
2021/12/29 05:57:27;;;;;;;11.20;7.05;;;9.30;99.90;;;;;;4853736;29;20034;-82
2021/12/29 05:59:54;;;;;;;12.73;6.55;;;9.20;99.90;;;;;;4842554;29;20033;-79
2021/12/29 06:02:20;;;;;;;15.35;6.95;;;9.30;99.90;;;;;;4846221;29;20053;-81
2021/12/29 06:04:47;;;;;;;11.93;6.18;;;9.20;99.90;;;;;;4852123;29;20033;-82
2021/12/29 06:07:13;;;;;;;8.60;6.32;;;9.30;99.90;;;;;;4855936;29;20033;-81
2021/12/29 06:09:40;;;;;;;12.93;6.40;;;9.30;99.90;;;;;;4876004;29;20037;-81
2021/12/29 06:12:08;;;;;;;9.85;5.85;;;9.30;99.90;;;;;;4858703;29;20056;-81
2021/12/29 06:14:34;;;;;;;12.35;5.85;;;9.30;99.90;;;;;;4859060;29;20524;-82
2021/12/29 06:17:01;;;;;;;9.35;6.22;;;9.30;99.90;;;;;;4839044;29;20025;-77
2021/12/29 06:19:30;;;;;;;8.80;5.78;;;9.30;99.90;;;;;;4851072;29;21325;-76
2021/12/29 06:21:56;;;;;;;7.68;5.05;;;9.30;99.90;;;;;;4852842;29;20033;-76
2021/12/29 06:24:23;;;;;;;9.35;6.07;;;9.30;99.90;;;;;;4855995;29;20021;-78
2021/12/29 06:26:49;;;;;;;10.75;5.85;;;9.20;99.90;;;;;;4825303;29;20033;-79
2021/12/29 06:29:22;;;;;;;12.30;7.03;;;9.30;99.90;;;;;;4854842;29;20029;-76
2021/12/29 06:31:49;;;;;;;12.00;7.00;;;9.30;99.90;;;;;;4849241;29;20029;-76
2021/12/29 06:34:16;;;;;;;11.95;6.53;;;9.30;99.90;;;;;;4862669;29;21479;-76
2021/12/29 06:36:42;;;;;;;13.10;6.13;;;9.30;99.90;;;;;;4853490;29;20044;-76
2021/12/29 06:39:09;;;;;;;11.15;5.82;;;9.30;99.90;;;;;;4853335;29;20033;-76
2021/12/29 06:41:38;;;;;;;9.18;5.90;;;9.30;99.90;;;;;;4848237;29;20951;-77
2021/12/29 06:44:08;;;;;;;10.40;6.90;;;9.30;99.90;;;;;;4828146;29;20037;-77
2021/12/29 06:46:37;;;;;;;10.52;6.47;;;9.20;99.90;;;;;;4858541;29;20412;-76
2021/12/29 06:49:03;;;;;;;8.40;5.30;;;9.30;99.90;;;;;;4859649;29;20040;-77
2021/12/29 06:51:31;;;;;;;9.88;5.38;;;9.30;99.90;;;;;;4831033;29;20457;-79
2021/12/29 06:53:57;;;;;;;9.02;4.90;;;9.30;99.90;;;;;;4844670;29;20040;-80
2021/12/29 06:56:24;;;;;;;7.80;4.25;;;9.30;99.90;;;;;;4828436;29;20727;-80
2021/12/29 06:58:50;;;;;;;5.32;3.70;;;9.20;99.90;;;;;;4847354;29;20029;-81
2021/12/29 07:01:17;;;;;;;6.25;3.88;;;9.20;99.90;;;;;;4824032;29;20040;-79
2021/12/29 07:03:45;;;;;;;4.07;3.05;;;9.20;99.90;;;;;;4837818;29;20481;-79
2021/12/29 07:06:11;;;;;;;4.07;2.67;;;9.20;99.90;;;;;;4841088;29;20037;-80
2021/12/29 07:08:40;;;;;;;4.95;3.33;;;9.20;99.90;;;;;;4846785;29;20527;-79
2021/12/29 07:11:07;;;;;;;7.57;3.75;;;9.20;99.90;;;;;;4841577;29;20049;-79
2021/12/29 07:13:33;;;;;;;5.93;4.40;;;9.20;99.90;;;;;;4842546;29;20040;-79
2021/12/29 07:16:00;;;;;;;4.78;4.28;;;9.20;99.90;;;;;;4843125;29;20045;-79
2021/12/29 07:18:26;;;;;;;4.60;3.50;;;9.20;99.90;;;;;;4827723;29;20606;-80
2021/12/29 07:20:54;;;;;;;5.75;3.53;;;9.20;99.90;;;;;;4844717;29;20045;-79
2021/12/29 07:23:21;;;;;;;8.93;5.00;;;9.20;99.90;;;;;;4858396;29;20033;-80
2021/12/29 07:25:47;;;;;;;10.93;5.03;;;9.20;99.90;;;;;;4858786;29;20493;-80
2021/12/29 07:28:14;;;;;;;10.05;5.93;;;9.20;99.90;;;;;;4804605;29;20044;-80
2021/12/29 07:30:40;;;;;;;11.43;5.60;;;9.20;99.90;;;;;;4813910;29;21155;-79
2021/12/29 07:33:08;;;;;;;11.20;5.72;;;9.20;99.90;;;;;;4825425;29;20453;-80
2021/12/29 07:35:34;;;;;;;11.65;6.38;;;9.20;99.90;;;;;;4822222;29;20040;-80
2021/12/29 07:38:01;;;;;;;12.15;6.03;;;9.20;99.90;;;;;;4846838;29;20040;-80
2021/12/29 07:40:27;;;;;;;15.13;7.25;;;9.20;99.90;;;;;;4815571;29;20037;-80
2021/12/29 07:42:54;;;;;;;9.02;6.07;;;9.20;99.90;;;;;;4823622;29;21655;-79
2021/12/29 07:45:23;;;;;;;18.20;9.45;;;9.20;99.90;;;;;;4835148;29;20041;-80
2021/12/29 07:47:50;;;;;;;17.23;8.57;;;9.20;99.90;;;;;;4851121;29;20029;-79
2021/12/29 07:50:19;;;;;;;19.98;9.50;;;9.20;99.90;;;;;;4843872;29;20041;-79
2021/12/29 07:52:48;;;;;;;22.27;10.85;;;9.20;99.90;;;;;;4857038;29;20029;-79
2021/12/29 07:55:19;;;;;;;13.75;8.13;;;9.20;99.90;;;;;;4822067;29;22725;-79
2021/12/29 07:57:47;;;;;;;22.05;9.88;;;9.20;99.90;;;;;;4855733;29;20049;-79
2021/12/29 08:00:16;;;;;;;21.38;8.85;;;9.20;99.90;;;;;;4842437;29;20045;-82
2021/12/29 08:02:44;;;;;;;21.10;8.90;;;9.20;99.90;;;;;;4839670;29;20084;-89
2021/12/29 08:05:12;;;;;;;18.52;8.90;;;9.20;99.90;;;;;;4841561;29;20048;-84
2021/12/29 08:07:39;;;;;;;19.33;8.27;;;9.20;99.90;;;;;;4846402;29;20041;-83
2021/12/29 08:10:06;;;;;;;21.17;8.38;;;9.20;99.90;;;;;;4836818;29;20033;-82
2021/12/29 08:12:33;;;;;;;14.75;7.90;;;9.20;99.90;;;;;;4842610;29;20397;-81
2021/12/29 08:14:59;;;;;;;21.58;8.27;;;9.20;99.90;;;;;;4841973;29;20701;-81
2021/12/29 08:17:26;;;;;;;16.40;8.25;;;9.20;99.90;;;;;;4860261;29;20037;-82
2021/12/29 08:19:53;;;;;;;17.80;8.60;;;9.20;99.90;;;;;;4862270;29;20037;-82
2021/12/29 08:22:20;;;;;;;17.13;8.82;;;9.20;99.90;;;;;;4839801;29;20044;-77
2021/12/29 08:24:46;;;;;;;25.00;11.13;;;9.20;99.90;;;;;;4834543;29;20037;-77
2021/12/29 08:27:13;;;;;;;22.13;10.95;;;9.20;99.90;;;;;;4858243;29;20041;-78
2021/12/29 08:29:41;;;;;;;25.45;10.98;;;9.20;99.90;;;;;;4831469;29;20679;-78
2021/12/29 08:32:08;;;;;;;27.13;11.20;;;9.30;99.90;;;;;;4867130;29;20028;-77
2021/12/29 08:34:34;;;;;;;21.45;10.77;;;9.20;99.90;;;;;;4855032;29;20030;-78
2021/12/29 08:37:03;;;;;;;22.25;9.25;;;9.30;99.90;;;;;;4863324;29;20037;-77
2021/12/29 08:39:30;;;;;;;27.48;12.95;;;9.30;99.90;;;;;;4859811;29;20025;-77
2021/12/29 08:41:56;;;;;;;26.20;13.10;;;9.30;99.90;;;;;;4836095;29;20386;-76
2021/12/29 08:44:23;;;;;;;26.98;13.50;;;9.30;99.90;;;;;;4872804;29;20032;-77
2021/12/29 08:46:49;;;;;;;21.77;10.48;;;9.30;99.90;;;;;;4872486;29;20880;-78
2021/12/29 08:49:16;;;;;;;25.27;12.50;;;9.30;99.90;;;;;;4844604;29;20343;-77
2021/12/29 08:51:42;;;;;;;27.42;13.43;;;9.30;99.90;;;;;;4872270;29;20046;-77
2021/12/29 08:54:09;;;;;;;24.63;12.82;;;9.30;99.90;;;;;;4839355;29;20069;-77
2021/12/29 08:56:36;;;;;;;31.63;14.55;;;9.30;99.90;;;;;;4854583;29;20495;-78
2021/12/29 08:59:04;;;;;;;28.77;12.57;;;9.30;99.90;;;;;;4852882;29;20036;-78
2021/12/29 09:01:31;;;;;;;22.33;12.10;;;9.30;99.90;;;;;;4855279;29;20057;-77
2021/12/29 09:03:57;;;;;;;20.20;11.05;;;9.40;99.90;;;;;;4865242;29;20497;-78
2021/12/29 09:06:24;;;;;;;27.63;14.02;;;9.40;99.90;;;;;;4824314;29;20029;-77
2021/12/29 09:08:54;;;;;;;21.52;13.20;;;9.40;99.90;;;;;;4837608;29;20042;-77
2021/12/29 09:11:21;;;;;;;20.20;13.27;;;9.40;99.90;;;;;;4871018;29;20044;-77
2021/12/29 09:13:47;;;;;;;23.85;13.95;;;9.40;99.90;;;;;;4830196;29;20522;-77
2021/12/29 09:16:14;;;;;;;23.38;13.70;;;9.40;99.90;;;;;;4860488;29;20044;-78
2021/12/29 09:18:41;;;;;;;27.17;14.02;;;9.40;99.90;;;;;;4873179;29;20043;-77
2021/12/29 09:21:13;;;;;;;30.17;16.05;;;9.40;99.90;;;;;;4829022;29;20033;-78
2021/12/29 09:23:41;;;;;;;23.08;13.30;;;9.40;99.90;;;;;;4854967;29;20049;-77
2021/12/29 09:26:10;;;;;;;34.35;16.67;;;9.40;99.90;;;;;;4853200;29;20017;-77
2021/12/29 09:28:37;;;;;;;34.65;17.90;;;9.40;99.90;;;;;;4851042;29;20044;-77
2021/12/29 09:31:03;;;;;;;32.13;18.30;;;9.40;99.90;;;;;;4854470;29;20052;-78
2021/12/29 09:33:30;;;;;;;31.38;15.30;;;9.40;99.90;;;;;;4866517;29;20029;-77
2021/12/29 09:36:01;;;;;;;28.42;16.33;;;9.40;99.90;;;;;;4828075;29;20041;-86
2021/12/29 09:38:31;;;;;;;33.55;16.15;;;9.40;99.90;;;;;;4841690;29;20037;-82
2021/12/29 09:40:58;;;;;;;29.63;17.88;;;9.40;99.90;;;;;;4854545;29;20482;-83
2021/12/29 09:43:25;;;;;;;30.95;16.63;;;9.40;99.90;;;;;;4839829;29;20404;-82
2021/12/29 09:45:51;;;;;;;32.10;18.83;;;9.40;99.90;;;;;;4842929;29;20175;-83
2021/12/29 09:48:18;;;;;;;28.92;16.98;;;9.40;99.90;;;;;;4856484;29;20478;-81
2021/12/29 09:50:46;;;;;;;36.15;16.75;;;9.40;99.90;;;;;;4856086;29;20033;-81
2021/12/29 09:53:13;;;;;;;32.85;16.92;;;9.40;99.90;;;;;;4870096;29;20494;-84
2021/12/29 09:55:40;;;;;;;28.13;16.02;;;9.50;99.90;;;;;;4856959;29;20468;-83
2021/12/29 09:58:08;;;;;;;30.90;16.17;;;9.50;99.90;;;;;;4838010;29;20045;-83
2021/12/29 10:00:42;;;;;;;30.83;16.52;;;9.50;99.90;;;;;;4850974;29;20501;-78
2021/12/29 10:03:13;;;;;;;34.33;18.02;;;9.50;99.90;;;;;;4867308;29;20045;-78
2021/12/29 10:05:42;;;;;;;28.90;16.85;;;9.50;99.90;;;;;;4868484;29;20025;-78
2021/12/29 10:08:15;;;;;;;30.45;17.15;;;9.50;99.90;;;;;;4838272;29;20060;-80
2021/12/29 10:10:47;;;;;;;30.23;16.90;;;9.50;99.90;;;;;;4834212;29;20508;-80
2021/12/29 10:13:15;;;;;;;27.48;15.52;;;9.50;99.90;;;;;;4846315;29;22603;-80
2021/12/29 10:15:44;;;;;;;26.65;16.15;;;9.50;99.90;;;;;;4853340;29;20044;-80
2021/12/29 10:18:12;;;;;;;36.03;16.67;;;9.50;99.90;;;;;;4850026;29;20377;-80
2021/12/29 10:20:49;;;;;;;30.15;16.25;;;9.50;99.90;;;;;;4848956;29;20552;-80
2021/12/29 10:23:19;;;;;;;22.58;13.48;;;9.50;99.90;;;;;;4834476;29;20052;-80
2021/12/29 10:25:45;;;;;;;26.08;15.60;;;9.60;99.90;;;;;;4861411;29;20052;-82
2021/12/29 10:28:21;;;;;;;24.52;15.38;;;9.50;99.90;;;;;;4851224;29;20036;-82
2021/12/29 10:31:04;;;;;;;27.55;15.65;;;9.60;99.90;;;;;;4863550;29;20475;-82
2021/12/29 10:33:46;;;;;;;19.55;12.82;;;9.60;99.90;;;;;;4845908;29;20371;-83
2021/12/29 10:36:16;;;;;;;28.35;14.90;;;9.70;99.90;;;;;;4866469;29;20044;-83
2021/12/29 10:38:45;;;;;;;29.63;16.27;;;9.70;99.90;;;;;;4860318;29;20041;-83
2021/12/29 10:41:12;;;;;;;24.63;15.02;;;9.70;99.90;;;;;;4833808;29;20363;-82
2021/12/29 10:43:49;;;;;;;25.38;14.00;;;9.70;99.90;;;;;;4835951;29;20076;-82
2021/12/29 10:46:23;;;;;;;25.38;15.52;;;9.80;99.90;;;;;;4853287;29;20040;-82
2021/12/29 10:48:51;;;;;;;27.27;15.70;;;9.80;99.90;;;;;;4851758;29;20045;-82
2021/12/29 10:51:19;;;;;;;28.85;15.85;;;9.80;99.90;;;;;;4833716;29;20045;-82
2021/12/29 10:53:46;;;;;;;30.42;15.82;;;9.80;99.90;;;;;;4836789;29;20160;-82
2021/12/29 10:56:21;;;;;;;23.23;11.98;;;9.90;99.90;;;;;;4863859;29;20037;-83
2021/12/29 10:58:49;;;;;;;25.23;14.48;;;9.90;99.90;;;;;;4849175;29;20044;-82
2021/12/29 11:01:16;;;;;;;28.17;14.75;;;9.90;99.90;;;;;;4850515;29;20049;-81
2021/12/29 11:03:49;;;;;;;25.73;15.55;;;9.90;99.90;;;;;;4862181;29;20052;-82
2021/12/29 11:06:18;;;;;;;24.30;12.88;;;10.00;99.90;;;;;;4851434;29;20026;-82
2021/12/29 11:08:50;;;;;;;23.13;13.75;;;10.00;99.90;;;;;;4864809;29;20059;-82
2021/12/29 11:11:28;;;;;;;23.80;14.35;;;10.00;99.90;;;;;;4860454;29;20500;-83
2021/12/29 11:14:04;;;;;;;25.30;15.25;;;10.00;99.90;;;;;;4818361;29;20033;-82
2021/12/29 11:16:31;;;;;;;26.48;15.65;;;10.00;99.90;;;;;;4831901;29;20037;-82
2021/12/29 11:18:57;;;;;;;24.05;14.60;;;10.10;99.90;;;;;;4848638;29;20033;-82
2021/12/29 11:21:34;;;;;;;21.50;14.13;;;10.10;99.90;;;;;;4839134;29;20055;-82
2021/12/29 11:24:16;;;;;;;24.10;14.65;;;10.10;99.90;;;;;;4852643;29;20045;-81
2021/12/29 11:26:44;;;;;;;23.75;15.73;;;10.10;99.90;;;;;;4832427;29;20404;-81
2021/12/29 11:29:19;;;;;;;17.63;14.45;;;10.20;99.90;;;;;;4844987;29;20382;-82
2021/12/29 11:31:51;;;;;;;22.90;15.25;;;10.10;99.90;;;;;;4849831;29;20356;-80
2021/12/29 11:34:26;;;;;;;21.75;15.32;;;10.10;99.90;;;;;;4870966;29;20401;-80
2021/12/29 11:37:08;;;;;;;23.70;14.85;;;10.20;99.90;;;;;;4870988;29;20040;-79
2021/12/29 11:39:48;;;;;;;19.77;13.40;;;10.20;99.90;;;;;;4855322;29;20383;-79
2021/12/29 11:42:18;;;;;;;21.42;14.30;;;10.10;99.90;;;;;;4854695;29;20048;-80
2021/12/29 11:44:44;;;;;;;19.58;13.68;;;10.10;99.90;;;;;;4838930;29;20045;-80
2021/12/29 11:47:11;;;;;;;22.92;14.00;;;10.10;99.90;;;;;;4839311;29;20370;-80
2021/12/29 11:49:40;;;;;;;19.35;13.48;;;10.10;99.90;;;;;;4870547;29;20037;-80
2021/12/29 11:52:09;;;;;;;17.88;13.63;;;10.00;99.90;;;;;;4838435;29;20485;-80
2021/12/29 11:54:53;;;;;;;18.30;14.77;;;10.00;99.90;;;;;;4855985;29;20041;-80
2021/12/29 11:57:25;;;;;;;21.58;12.80;;;10.00;99.90;;;;;;4869705;29;20502;-80
2021/12/29 11:59:53;;;;;;;16.60;12.93;;;10.00;99.90;;;;;;4855832;29;20048;-80
2021/12/29 12:02:25;;;;;;;23.40;14.52;;;10.00;99.90;;;;;;4840825;29;20049;-81
2021/12/29 12:05:03;;;;;;;18.85;13.48;;;9.90;99.90;;;;;;4852878;29;20029;-82
2021/12/29 12:07:30;;;;;;;17.88;13.13;;;9.90;99.90;;;;;;4869623;29;20512;-82
2021/12/29 12:10:01;;;;;;;19.55;14.52;;;9.90;99.90;;;;;;4806936;29;20049;-82
2021/12/29 12:12:39;;;;;;;21.88;14.82;;;9.90;99.90;;;;;;4854255;29;20021;-82
2021/12/29 12:15:07;;;;;;;22.05;16.95;;;9.90;99.90;;;;;;4831522;29;20045;-81
2021/12/29 12:17:38;;;;;;;23.50;16.23;;;9.90;99.90;;;;;;4867235;29;20060;-82
2021/12/29 12:20:16;;;;;;;19.48;15.57;;;9.90;99.90;;;;;;4844176;29;20061;-82
2021/12/29 12:22:47;;;;;;;22.67;15.75;;;9.90;99.90;;;;;;4837479;29;20047;-82
2021/12/29 12:25:18;;;;;;;22.73;14.95;;;9.90;99.90;;;;;;4870445;29;20059;-81
2021/12/29 12:27:50;;;;;;;19.48;15.00;;;9.90;99.90;;;;;;4852379;29;20036;-83
2021/12/29 12:30:22;;;;;;;21.10;15.90;;;9.90;99.90;;;;;;4833646;29;20034;-83
2021/12/29 12:32:54;;;;;;;20.08;14.43;;;9.90;99.90;;;;;;4863290;29;20036;-83
2021/12/29 12:35:38;;;;;;;22.95;15.32;;;9.90;99.90;;;;;;4857872;29;20037;-82
2021/12/29 12:38:27;;;;;;;17.90;13.95;;;9.90;99.90;;;;;;4833231;29;20488;-82
2021/12/29 12:41:08;;;;;;;20.40;15.10;;;9.90;99.90;;;;;;4846732;29;20048;-82
2021/12/29 12:43:47;;;;;;;18.90;13.02;;;9.90;99.90;;;;;;4849734;29;20033;-81
2021/12/29 12:46:14;;;;;;;20.95;14.10;;;9.90;99.90;;;;;;4850482;29;20033;-81
2021/12/29 12:48:41;;;;;;;15.45;12.35;;;9.90;99.90;;;;;;4870745;29;20024;-81
2021/12/29 12:51:18;;;;;;;18.77;13.30;;;9.90;99.90;;;;;;4837868;29;20048;-81
2021/12/29 12:53:45;;;;;;;21.30;13.02;;;10.00;99.90;;;;;;4852887;29;20148;-80
2021/12/29 12:56:18;;;;;;;26.55;15.40;;;9.90;99.90;;;;;;4849900;29;20045;-80
2021/12/29 12:58:50;;;;;;;20.40;14.38;;;9.90;99.90;;;;;;4869131;29;20853;-81
2021/12/29 13:01:23;;;;;;;18.63;14.20;;;10.00;99.90;;;;;;4836950;29;20048;-81